< < Back
Terminal Aerodrome Forecast


Current Version              Previous Versions:   1  2  3  4  5  6  7  8  9  

Terminal Aerodrome Forecast

792
FTUS42 KILM 232320
TAFILM
TAF
KILM 232320Z 2400/2424 09005KT P6SM SKC
     FM241700 13011KT P6SM SCT050=

Latest METAR

182
SAUS70 KWBC 250100
MTRILM
METAR KILM 250053Z AUTO 12003KT 10SM FEW039 22/15 A3033 RMK AO2 SLP270
T02220150 $


USA.gov is the U.S. government's official web portal to all federal, state and local government web resources and services.